Fairbank, Illinois
Current Conditions -  °F | °C
As of 12:52 PM on Tuesday 21 Oct 2014 (Local Time) from KMLI Reporting Station
Clear Clear  
Wind Chill: 14°   Ceiling: Unl
Heat Index: 14°   Visibility: 10mi
Dew Point:   Wind: 6mph
Humidity: 53%   Direction: 50°NE
Pressure: 30.19"   Gusts: NA
Location:  41.4828°N, 90.1801°W
Report Text: KMLI 211752Z 05005KT 10SM CLR 14/04 A3019 RMK AO2 SLP224 T01390044 10144 20022 58001
Loading
Personal Weather Stations






























Interactive Weather Map
Tropical Storm Tracking
New forecast layout! Learn more

10-Day Weather Forecast

Advertisements
Track Severe Weather on mobile